Time;durP1;ratioP1;P1;durP2;ratioP2;P2;SDS_P1;SDS_P2;PMS_P1;PMS_P2;Temp;Humidity;BMP_temperature;BMP_pressure;BME280_temperature;BME280_humidity;BME280_pressure;Samples;Min_cycle;Max_cycle;Signal;HPM_P1;HPM_P2
2024/04/02 00:00:21;;;;;;;4.95;1.70;;;;;;;;;;778857;179;668583;-70
2024/04/02 00:02:47;;;;;;;4.23;1.73;;;;;;;;;;771098;178;822908;-69
2024/04/02 00:05:13;;;;;;;3.53;1.80;;;;;;;;;;775381;179;816187;-70
2024/04/02 00:07:39;;;;;;;2.97;1.50;;;;;;;;;;773994;180;815567;-71
2024/04/02 00:10:05;;;;;;;3.00;1.70;;;;;;;;;;781501;178;817105;-70
2024/04/02 00:12:31;;;;;;;3.30;1.20;;;;;;;;;;777214;179;928690;-70
2024/04/02 00:14:56;;;;;;;4.53;2.00;;;;;;;;;;772575;178;918401;-71
2024/04/02 00:17:22;;;;;;;3.03;1.60;;;;;;;;;;779395;177;923633;-70
2024/04/02 00:19:48;;;;;;;3.03;1.90;;;;;;;;;;769670;179;807914;-71
2024/04/02 00:22:14;;;;;;;3.12;1.50;;;;;;;;;;771133;179;820205;-71
2024/04/02 00:24:40;;;;;;;2.47;1.23;;;;;;;;;;779811;179;708558;-71
2024/04/02 00:27:06;;;;;;;2.53;1.43;;;;;;;;;;767725;179;754271;-71
2024/04/02 00:29:32;;;;;;;4.80;1.60;;;;;;;;;;776207;179;722662;-69
2024/04/02 00:31:57;;;;;;;2.80;1.40;;;;;;;;;;782183;179;683619;-70
2024/04/02 00:34:23;;;;;;;3.43;1.80;;;;;;;;;;777355;177;903095;-70
2024/04/02 00:36:50;;;;;;;3.63;1.80;;;;;;;;;;776014;177;699324;-70
2024/04/02 00:39:15;;;;;;;2.50;1.43;;;;;;;;;;781025;177;835378;-70
2024/04/02 00:41:41;;;;;;;3.13;1.97;;;;;;;;;;771487;178;810011;-71
2024/04/02 00:44:07;;;;;;;2.70;1.80;;;;;;;;;;772960;179;792451;-71
2024/04/02 00:46:32;;;;;;;3.70;2.20;;;;;;;;;;776850;179;799000;-71
2024/04/02 00:48:58;;;;;;;5.93;2.43;;;;;;;;;;777248;177;742407;-71
2024/04/02 00:51:25;;;;;;;4.70;2.50;;;;;;;;;;778299;177;911924;-70
2024/04/02 00:53:50;;;;;;;4.43;2.33;;;;;;;;;;771159;178;902662;-71
2024/04/02 00:56:16;;;;;;;3.10;2.30;;;;;;;;;;783641;179;914876;-71
2024/04/02 00:58:42;;;;;;;6.63;2.70;;;;;;;;;;778295;179;905336;-71
2024/04/02 01:01:08;;;;;;;2.80;1.90;;;;;;;;;;775868;177;792204;-72
2024/04/02 01:03:34;;;;;;;11.03;2.30;;;;;;;;;;773543;179;917095;-70
2024/04/02 01:05:59;;;;;;;3.00;2.00;;;;;;;;;;773215;179;912573;-71
2024/04/02 01:08:26;;;;;;;4.07;2.50;;;;;;;;;;772534;179;920249;-71
2024/04/02 01:10:52;;;;;;;3.40;2.20;;;;;;;;;;777662;176;902972;-71
2024/04/02 01:13:17;;;;;;;4.13;2.40;;;;;;;;;;771419;179;746938;-71
2024/04/02 01:15:43;;;;;;;3.77;2.53;;;;;;;;;;768847;177;875034;-71
2024/04/02 01:18:09;;;;;;;3.53;2.60;;;;;;;;;;776028;179;798925;-72
2024/04/02 01:20:34;;;;;;;4.50;3.03;;;;;;;;;;777801;179;794033;-72
2024/04/02 01:23:00;;;;;;;4.33;2.50;;;;;;;;;;774981;179;820391;-71
2024/04/02 01:25:26;;;;;;;4.13;2.37;;;;;;;;;;774904;179;876709;-71
2024/04/02 01:27:52;;;;;;;3.73;1.70;;;;;;;;;;781930;179;696101;-71
2024/04/02 01:30:18;;;;;;;2.73;1.63;;;;;;;;;;775727;179;686780;-71
2024/04/02 01:32:44;;;;;;;3.60;1.77;;;;;;;;;;775490;179;703635;-71
2024/04/02 01:35:13;;;;;;;3.30;1.80;;;;;;;;;;778258;179;808500;-72
2024/04/02 01:37:36;;;;;;;2.90;2.00;;;;;;;;;;771742;177;704645;-71
2024/04/02 01:40:02;;;;;;;5.40;1.40;;;;;;;;;;771562;180;803589;-72
2024/04/02 01:42:27;;;;;;;3.20;1.70;;;;;;;;;;775200;179;696114;-71
2024/04/02 01:44:53;;;;;;;4.40;1.83;;;;;;;;;;776136;179;760309;-72
2024/04/02 01:47:19;;;;;;;2.33;1.30;;;;;;;;;;776115;179;831479;-70
2024/04/02 01:49:45;;;;;;;5.23;1.80;;;;;;;;;;780384;180;776715;-70
2024/04/02 01:52:11;;;;;;;3.30;1.93;;;;;;;;;;775413;179;814248;-70
2024/04/02 01:54:37;;;;;;;3.40;1.60;;;;;;;;;;772507;178;705457;-70
2024/04/02 01:57:03;;;;;;;3.00;1.60;;;;;;;;;;774288;177;891250;-71
2024/04/02 01:59:28;;;;;;;3.10;1.83;;;;;;;;;;780370;179;811185;-71
2024/04/02 02:01:54;;;;;;;2.80;1.70;;;;;;;;;;774639;179;740437;-71
2024/04/02 02:04:20;;;;;;;3.67;1.87;;;;;;;;;;773972;177;907068;-71
2024/04/02 02:06:46;;;;;;;3.50;1.60;;;;;;;;;;781652;177;691680;-70
2024/04/02 02:09:12;;;;;;;4.20;1.80;;;;;;;;;;768599;179;826978;-70
2024/04/02 02:11:38;;;;;;;3.87;1.60;;;;;;;;;;773560;179;893851;-71
2024/04/02 02:14:04;;;;;;;3.12;1.60;;;;;;;;;;782920;179;756054;-71
2024/04/02 02:16:30;;;;;;;2.80;1.90;;;;;;;;;;773682;179;905295;-72
2024/04/02 02:18:55;;;;;;;3.37;1.70;;;;;;;;;;774165;179;884706;-72
2024/04/02 02:21:22;;;;;;;3.60;1.67;;;;;;;;;;779840;178;781397;-71
2024/04/02 02:23:49;;;;;;;2.97;1.50;;;;;;;;;;775429;179;858081;-72
2024/04/02 02:26:13;;;;;;;4.77;2.30;;;;;;;;;;776827;178;805852;-70
2024/04/02 02:28:39;;;;;;;2.90;1.73;;;;;;;;;;775920;179;786785;-70
2024/04/02 02:31:05;;;;;;;2.40;1.30;;;;;;;;;;764444;181;705448;-71
2024/04/02 02:33:30;;;;;;;2.63;1.50;;;;;;;;;;752775;181;902086;-72
2024/04/02 02:35:56;;;;;;;2.60;1.57;;;;;;;;;;777278;177;741510;-70
2024/04/02 02:38:22;;;;;;;3.33;1.80;;;;;;;;;;781366;177;706893;-72
2024/04/02 02:40:48;;;;;;;2.67;1.50;;;;;;;;;;773766;179;819185;-72
2024/04/02 02:43:14;;;;;;;3.27;1.63;;;;;;;;;;773466;178;862059;-71
2024/04/02 02:45:45;;;;;;;2.80;1.50;;;;;;;;;;775440;180;694797;-71
2024/04/02 02:48:11;;;;;;;2.27;1.33;;;;;;;;;;776642;180;631070;-71
2024/04/02 02:50:37;;;;;;;3.00;1.90;;;;;;;;;;776743;177;815071;-70
2024/04/02 02:53:03;;;;;;;2.70;1.60;;;;;;;;;;774660;179;812067;-70
2024/04/02 02:55:29;;;;;;;3.72;1.85;;;;;;;;;;774159;179;703531;-71
2024/04/02 02:57:55;;;;;;;3.17;2.20;;;;;;;;;;775388;179;752535;-71
2024/04/02 03:00:21;;;;;;;2.90;1.63;;;;;;;;;;777077;177;816702;-70
2024/04/02 03:02:46;;;;;;;2.77;1.80;;;;;;;;;;777260;178;903589;-70
2024/04/02 03:05:12;;;;;;;3.10;1.90;;;;;;;;;;773723;179;794864;-70
2024/04/02 03:07:38;;;;;;;3.53;2.40;;;;;;;;;;772834;179;786108;-70
2024/04/02 03:10:04;;;;;;;2.90;1.80;;;;;;;;;;779055;179;756790;-70
2024/04/02 03:12:30;;;;;;;3.20;2.07;;;;;;;;;;776328;179;715243;-70
2024/04/02 03:14:56;;;;;;;2.90;2.00;;;;;;;;;;779250;178;721923;-69
2024/04/02 03:17:22;;;;;;;3.23;2.10;;;;;;;;;;777678;179;783557;-70
2024/04/02 03:19:48;;;;;;;4.60;2.20;;;;;;;;;;776537;178;811048;-69
2024/04/02 03:22:13;;;;;;;3.85;2.65;;;;;;;;;;775112;177;817021;-69
2024/04/02 03:24:39;;;;;;;3.20;2.30;;;;;;;;;;777107;179;826403;-70
2024/04/02 03:27:05;;;;;;;4.13;2.10;;;;;;;;;;763083;178;772326;-71
2024/04/02 03:29:31;;;;;;;3.90;2.43;;;;;;;;;;754115;182;915363;-70
2024/04/02 03:31:57;;;;;;;3.20;2.20;;;;;;;;;;776441;178;765165;-71
2024/04/02 03:34:23;;;;;;;3.13;2.00;;;;;;;;;;776876;177;824084;-70
2024/04/02 03:36:49;;;;;;;3.30;2.47;;;;;;;;;;776360;179;749120;-70
2024/04/02 03:39:15;;;;;;;3.92;2.03;;;;;;;;;;771985;178;863543;-71
2024/04/02 03:41:41;;;;;;;3.20;1.90;;;;;;;;;;775006;178;1058933;-70
2024/04/02 03:44:07;;;;;;;4.33;2.27;;;;;;;;;;776122;178;966063;-71
2024/04/02 03:46:33;;;;;;;3.10;2.15;;;;;;;;;;775896;179;868067;-70
2024/04/02 03:48:59;;;;;;;4.27;2.70;;;;;;;;;;779875;177;718629;-69
2024/04/02 03:51:24;;;;;;;3.87;2.30;;;;;;;;;;773141;179;708592;-71
2024/04/02 03:53:50;;;;;;;2.85;2.15;;;;;;;;;;775084;179;790528;-70
2024/04/02 03:56:16;;;;;;;4.67;2.30;;;;;;;;;;775071;180;841811;-70
2024/04/02 03:58:42;;;;;;;2.90;1.90;;;;;;;;;;775606;177;671364;-70
2024/04/02 04:01:09;;;;;;;4.10;2.30;;;;;;;;;;773417;177;817646;-70
2024/04/02 04:03:34;;;;;;;3.93;2.60;;;;;;;;;;775677;177;814799;-70
2024/04/02 04:06:00;;;;;;;5.23;2.40;;;;;;;;;;778058;177;619279;-69
2024/04/02 04:08:25;;;;;;;3.10;2.10;;;;;;;;;;777504;179;627632;-69
2024/04/02 04:10:51;;;;;;;5.23;2.97;;;;;;;;;;777961;179;640617;-71
2024/04/02 04:13:17;;;;;;;3.22;2.20;;;;;;;;;;780623;179;757307;-72
2024/04/02 04:15:43;;;;;;;4.10;2.90;;;;;;;;;;776053;179;633298;-70
2024/04/02 04:18:09;;;;;;;3.87;2.73;;;;;;;;;;777700;179;662334;-70
2024/04/02 04:20:35;;;;;;;3.80;2.90;;;;;;;;;;782555;179;652844;-70
2024/04/02 04:23:00;;;;;;;3.75;2.75;;;;;;;;;;773758;179;696141;-70
2024/04/02 04:25:26;;;;;;;4.03;2.90;;;;;;;;;;774933;179;692713;-69
2024/04/02 04:27:52;;;;;;;3.90;2.50;;;;;;;;;;779183;178;748572;-70
2024/04/02 04:30:18;;;;;;;4.30;3.10;;;;;;;;;;775098;177;815635;-71
2024/04/02 04:32:44;;;;;;;6.27;3.53;;;;;;;;;;777001;179;761220;-70
2024/04/02 04:35:10;;;;;;;4.80;3.10;;;;;;;;;;774564;178;806522;-71
2024/04/02 04:37:36;;;;;;;3.07;2.40;;;;;;;;;;781355;178;637406;-73
2024/04/02 04:40:01;;;;;;;5.60;3.53;;;;;;;;;;775655;179;813477;-71
2024/04/02 04:42:29;;;;;;;6.90;3.20;;;;;;;;;;777505;179;669204;-71
2024/04/02 04:44:53;;;;;;;4.00;3.10;;;;;;;;;;778118;178;628689;-71
2024/04/02 04:47:19;;;;;;;3.63;2.93;;;;;;;;;;774271;179;658820;-70
2024/04/02 04:49:45;;;;;;;4.80;2.83;;;;;;;;;;776149;179;714493;-70
2024/04/02 04:52:11;;;;;;;4.40;3.27;;;;;;;;;;782561;179;765941;-69
2024/04/02 04:54:37;;;;;;;6.83;3.07;;;;;;;;;;778287;177;820408;-70
2024/04/02 04:57:02;;;;;;;4.90;3.00;;;;;;;;;;775088;179;764108;-70
2024/04/02 04:59:28;;;;;;;3.50;2.70;;;;;;;;;;780185;179;757682;-69
2024/04/02 05:01:54;;;;;;;4.37;3.10;;;;;;;;;;777574;177;815801;-70
2024/04/02 05:04:20;;;;;;;4.63;3.43;;;;;;;;;;778615;179;722486;-71
2024/04/02 05:06:47;;;;;;;3.57;3.00;;;;;;;;;;777019;180;680554;-70
2024/04/02 05:09:12;;;;;;;6.78;2.47;;;;;;;;;;763536;179;733870;-69
2024/04/02 05:11:38;;;;;;;5.40;2.20;;;;;;;;;;777124;180;698426;-70
2024/04/02 05:14:03;;;;;;;6.83;3.00;;;;;;;;;;773643;179;714770;-70
2024/04/02 05:16:29;;;;;;;3.83;2.60;;;;;;;;;;780571;178;711970;-70
2024/04/02 05:18:55;;;;;;;5.10;3.65;;;;;;;;;;771743;178;832194;-70
2024/04/02 05:21:21;;;;;;;3.03;1.37;;;;;;;;;;774211;180;918100;-71
2024/04/02 05:23:47;;;;;;;5.50;3.10;;;;;;;;;;779752;179;816550;-70
2024/04/02 05:26:13;;;;;;;6.70;3.03;;;;;;;;;;774962;178;816216;-70
2024/04/02 05:28:40;;;;;;;4.63;2.70;;;;;;;;;;773687;179;861475;-70
2024/04/02 05:31:05;;;;;;;4.30;2.83;;;;;;;;;;782096;177;712435;-69
2024/04/02 05:33:31;;;;;;;3.60;2.20;;;;;;;;;;773287;179;744787;-71
2024/04/02 05:35:56;;;;;;;3.47;2.30;;;;;;;;;;773217;179;707630;-70
2024/04/02 05:38:22;;;;;;;3.67;2.33;;;;;;;;;;781312;179;817363;-70
2024/04/02 05:40:48;;;;;;;3.50;2.40;;;;;;;;;;779983;176;712329;-69
2024/04/02 05:43:14;;;;;;;4.33;2.33;;;;;;;;;;776664;177;915366;-70
2024/04/02 05:45:40;;;;;;;3.37;1.93;;;;;;;;;;775848;179;772499;-70
2024/04/02 05:48:06;;;;;;;4.07;2.40;;;;;;;;;;781728;180;669924;-70
2024/04/02 05:50:32;;;;;;;3.47;2.07;;;;;;;;;;775724;179;897158;-70
2024/04/02 05:52:58;;;;;;;3.75;2.40;;;;;;;;;;776823;179;831015;-71
2024/04/02 05:55:23;;;;;;;4.60;1.80;;;;;;;;;;779550;179;712128;-70
2024/04/02 05:57:50;;;;;;;2.80;1.70;;;;;;;;;;778988;178;661229;-71
2024/04/02 06:00:15;;;;;;;2.90;2.00;;;;;;;;;;772552;179;716690;-70
2024/04/02 06:02:42;;;;;;;3.03;1.80;;;;;;;;;;781176;179;734850;-69
2024/04/02 06:05:08;;;;;;;3.43;1.47;;;;;;;;;;773272;177;667979;-70
2024/04/02 06:07:33;;;;;;;3.08;1.90;;;;;;;;;;776306;179;787205;-70
2024/04/02 06:09:59;;;;;;;3.60;1.90;;;;;;;;;;775609;180;647011;-69
2024/04/02 06:12:26;;;;;;;5.93;2.17;;;;;;;;;;778765;178;703842;-70
2024/04/02 06:14:51;;;;;;;4.20;1.87;;;;;;;;;;774508;179;926068;-70
2024/04/02 06:17:17;;;;;;;2.97;2.07;;;;;;;;;;776428;177;811530;-70
2024/04/02 06:19:43;;;;;;;3.73;1.87;;;;;;;;;;775885;179;700415;-70
2024/04/02 06:22:09;;;;;;;5.43;2.23;;;;;;;;;;772811;177;805488;-69
2024/04/02 06:24:35;;;;;;;5.53;1.80;;;;;;;;;;775177;177;906965;-70
2024/04/02 06:27:00;;;;;;;2.78;1.58;;;;;;;;;;777251;177;785254;-70
2024/04/02 06:29:27;;;;;;;3.70;1.87;;;;;;;;;;767611;179;888704;-70
2024/04/02 06:31:52;;;;;;;3.12;1.48;;;;;;;;;;769207;179;895956;-69
2024/04/02 06:34:18;;;;;;;2.50;1.60;;;;;;;;;;775659;179;793430;-70
2024/04/02 06:36:44;;;;;;;3.50;1.83;;;;;;;;;;779729;177;655635;-69
2024/04/02 06:39:10;;;;;;;4.57;2.03;;;;;;;;;;776588;179;737355;-70
2024/04/02 06:41:36;;;;;;;4.35;2.10;;;;;;;;;;779101;179;820579;-70
2024/04/02 06:44:01;;;;;;;3.57;1.90;;;;;;;;;;775726;179;816974;-68
2024/04/02 06:46:27;;;;;;;4.00;2.30;;;;;;;;;;778138;179;711306;-70
2024/04/02 06:48:54;;;;;;;3.65;1.90;;;;;;;;;;776818;177;753845;-71
2024/04/02 06:51:19;;;;;;;3.10;2.10;;;;;;;;;;768028;180;916176;-71
2024/04/02 06:53:45;;;;;;;4.43;1.80;;;;;;;;;;772905;177;918859;-70
2024/04/02 06:56:11;;;;;;;3.27;1.80;;;;;;;;;;776598;179;808481;-69
2024/04/02 06:58:38;;;;;;;4.15;2.35;;;;;;;;;;781086;179;817533;-70
2024/04/02 07:01:03;;;;;;;3.30;1.87;;;;;;;;;;777967;178;702970;-70
2024/04/02 07:03:29;;;;;;;2.80;1.70;;;;;;;;;;773794;177;814451;-70
2024/04/02 07:05:55;;;;;;;3.30;1.90;;;;;;;;;;776291;179;912494;-69
2024/04/02 07:08:24;;;;;;;2.80;1.87;;;;;;;;;;772327;178;911396;-70
2024/04/02 07:10:47;;;;;;;2.97;1.80;;;;;;;;;;779033;178;717930;-69
2024/04/02 07:13:13;;;;;;;4.63;1.53;;;;;;;;;;780530;179;621093;-70
2024/04/02 07:15:40;;;;;;;4.10;1.90;;;;;;;;;;778563;177;758176;-70
2024/04/02 07:18:06;;;;;;;4.87;1.83;;;;;;;;;;776202;179;659475;-70
2024/04/02 07:20:32;;;;;;;3.33;1.90;;;;;;;;;;776450;179;827218;-70
2024/04/02 07:22:58;;;;;;;3.37;1.67;;;;;;;;;;772591;180;634134;-70
2024/04/02 07:25:24;;;;;;;4.50;2.57;;;;;;;;;;776588;179;625325;-69
2024/04/02 07:27:50;;;;;;;2.70;1.60;;;;;;;;;;776090;178;787411;-69
2024/04/02 07:30:16;;;;;;;2.97;2.10;;;;;;;;;;775999;179;854566;-71
2024/04/02 07:32:41;;;;;;;2.80;1.80;;;;;;;;;;772742;178;914677;-70
2024/04/02 07:35:07;;;;;;;2.83;1.73;;;;;;;;;;772952;177;622122;-70
2024/04/02 07:37:33;;;;;;;3.30;1.90;;;;;;;;;;779884;179;633643;-69
2024/04/02 07:39:59;;;;;;;3.47;1.87;;;;;;;;;;772022;179;641025;-69
2024/04/02 07:42:25;;;;;;;2.93;1.53;;;;;;;;;;777806;177;651262;-72
2024/04/02 07:44:51;;;;;;;2.90;1.70;;;;;;;;;;779936;179;621288;-70
2024/04/02 07:47:16;;;;;;;2.57;1.60;;;;;;;;;;779007;178;630281;-68
2024/04/02 07:49:42;;;;;;;3.60;1.67;;;;;;;;;;775374;178;704231;-72
2024/04/02 07:52:08;;;;;;;2.63;1.80;;;;;;;;;;777403;178;766744;-70
2024/04/02 07:54:34;;;;;;;2.87;1.50;;;;;;;;;;775878;178;762879;-70
2024/04/02 07:57:00;;;;;;;3.53;2.00;;;;;;;;;;777212;179;797955;-69
2024/04/02 07:59:26;;;;;;;3.10;1.67;;;;;;;;;;772712;179;897613;-70
2024/04/02 08:01:52;;;;;;;2.90;1.47;;;;;;;;;;782831;177;734216;-69
2024/04/02 08:04:20;;;;;;;2.83;1.50;;;;;;;;;;775344;178;815260;-70
2024/04/02 08:06:45;;;;;;;3.50;1.80;;;;;;;;;;771429;179;909711;-69
2024/04/02 08:09:11;;;;;;;5.00;1.53;;;;;;;;;;779671;179;776703;-70
2024/04/02 08:11:37;;;;;;;2.73;1.80;;;;;;;;;;771135;179;894274;-69
2024/04/02 08:14:03;;;;;;;2.80;1.62;;;;;;;;;;775869;178;792925;-69
2024/04/02 08:16:28;;;;;;;3.87;1.90;;;;;;;;;;781431;179;731321;-68
2024/04/02 08:18:54;;;;;;;3.77;2.13;;;;;;;;;;778135;179;767061;-69
2024/04/02 08:21:20;;;;;;;2.33;1.40;;;;;;;;;;778346;179;707165;-69
2024/04/02 08:23:46;;;;;;;3.83;2.10;;;;;;;;;;778277;179;711921;-68
2024/04/02 08:26:12;;;;;;;6.67;2.10;;;;;;;;;;776261;179;764435;-67
2024/04/02 08:28:38;;;;;;;6.23;1.60;;;;;;;;;;776281;178;815083;-69
2024/04/02 08:31:03;;;;;;;2.87;1.50;;;;;;;;;;779189;177;618275;-69
2024/04/02 08:33:29;;;;;;;4.30;1.80;;;;;;;;;;779067;176;916660;-69
2024/04/02 08:35:55;;;;;;;5.87;1.90;;;;;;;;;;775862;177;816673;-67
2024/04/02 08:38:21;;;;;;;3.50;2.03;;;;;;;;;;778536;177;856747;-69
2024/04/02 08:40:47;;;;;;;3.93;2.10;;;;;;;;;;780945;177;919789;-69
2024/04/02 08:43:13;;;;;;;3.27;1.53;;;;;;;;;;776671;179;844168;-68
2024/04/02 08:45:40;;;;;;;3.28;1.95;;;;;;;;;;775514;177;838675;-69
2024/04/02 08:48:05;;;;;;;2.70;1.53;;;;;;;;;;782033;179;636286;-69
2024/04/02 08:50:31;;;;;;;3.50;1.80;;;;;;;;;;774699;177;819020;-69
2024/04/02 08:52:56;;;;;;;5.37;1.90;;;;;;;;;;769841;179;951415;-69
2024/04/02 08:55:22;;;;;;;3.40;2.03;;;;;;;;;;778330;177;832594;-68
2024/04/02 08:57:49;;;;;;;5.80;2.27;;;;;;;;;;773281;179;918176;-68
2024/04/02 09:00:15;;;;;;;7.40;4.37;;;;;;;;;;771166;179;898881;-68
2024/04/02 09:02:41;;;;;;;5.77;3.27;;;;;;;;;;775080;179;814230;-70
2024/04/02 09:05:06;;;;;;;5.80;2.70;;;;;;;;;;772219;180;816253;-69
2024/04/02 09:07:32;;;;;;;3.03;1.92;;;;;;;;;;778657;177;793554;-69
2024/04/02 09:09:58;;;;;;;3.60;2.10;;;;;;;;;;774577;180;682130;-69
2024/04/02 09:12:24;;;;;;;3.00;1.87;;;;;;;;;;782470;177;714618;-67
2024/04/02 09:14:50;;;;;;;3.50;2.20;;;;;;;;;;776310;177;808401;-68
2024/04/02 09:17:16;;;;;;;3.40;2.05;;;;;;;;;;779511;178;713307;-68
2024/04/02 09:19:44;;;;;;;2.87;1.60;;;;;;;;;;774977;179;856903;-69
2024/04/02 09:22:07;;;;;;;4.13;1.90;;;;;;;;;;775886;178;814684;-68
2024/04/02 09:24:33;;;;;;;6.00;1.90;;;;;;;;;;779360;178;813277;-68
2024/04/02 09:26:59;;;;;;;8.50;2.80;;;;;;;;;;782223;178;817187;-67
2024/04/02 09:29:25;;;;;;;4.50;2.30;;;;;;;;;;777239;178;821026;-67
2024/04/02 09:31:51;;;;;;;5.47;2.60;;;;;;;;;;775289;179;918000;-68
2024/04/02 09:34:17;;;;;;;3.63;2.00;;;;;;;;;;776930;180;823774;-65
2024/04/02 09:36:43;;;;;;;4.27;2.00;;;;;;;;;;775561;179;815334;-68
2024/04/02 09:39:09;;;;;;;2.80;1.80;;;;;;;;;;771531;178;821304;-67
2024/04/02 09:41:37;;;;;;;3.27;2.00;;;;;;;;;;773062;178;902259;-68
2024/04/02 09:44:03;;;;;;;3.80;1.80;;;;;;;;;;769744;179;837112;-67
2024/04/02 09:46:29;;;;;;;3.37;1.80;;;;;;;;;;778414;177;916927;-67
2024/04/02 09:48:54;;;;;;;2.97;2.00;;;;;;;;;;775718;179;798914;-65
2024/04/02 09:51:20;;;;;;;4.33;1.90;;;;;;;;;;776195;180;920394;-68
2024/04/02 09:53:46;;;;;;;2.87;1.77;;;;;;;;;;775977;178;815448;-67
2024/04/02 09:56:12;;;;;;;4.70;2.00;;;;;;;;;;771956;179;811842;-69
2024/04/02 09:58:38;;;;;;;3.30;1.93;;;;;;;;;;778667;177;915279;-69
2024/04/02 10:01:04;;;;;;;2.53;1.53;;;;;;;;;;776414;177;906882;-69
2024/04/02 10:03:29;;;;;;;2.83;1.52;;;;;;;;;;772174;177;915228;-70
2024/04/02 10:06:01;;;;;;;6.90;1.90;;;;;;;;;;777207;178;816804;-68
2024/04/02 10:08:27;;;;;;;3.77;1.77;;;;;;;;;;768852;177;819966;-68
2024/04/02 10:10:54;;;;;;;3.60;1.80;;;;;;;;;;773719;178;794613;-69
2024/04/02 10:13:21;;;;;;;3.17;1.80;;;;;;;;;;772537;177;940706;-67
2024/04/02 10:15:51;;;;;;;2.70;1.50;;;;;;;;;;782851;179;809642;-69
2024/04/02 10:18:17;;;;;;;2.97;1.43;;;;;;;;;;775255;179;911135;-70
2024/04/02 10:20:43;;;;;;;4.70;1.83;;;;;;;;;;775886;178;818443;-70
2024/04/02 10:23:10;;;;;;;3.07;1.93;;;;;;;;;;777904;179;799609;-69
2024/04/02 10:25:37;;;;;;;6.07;2.27;;;;;;;;;;776082;179;725523;-67
2024/04/02 10:28:03;;;;;;;4.20;1.60;;;;;;;;;;772265;178;918878;-67
2024/04/02 10:30:27;;;;;;;4.50;1.93;;;;;;;;;;778637;178;909976;-69
2024/04/02 10:32:53;;;;;;;4.62;1.90;;;;;;;;;;778992;177;910869;-69
2024/04/02 10:35:20;;;;;;;3.37;1.50;;;;;;;;;;777917;177;931554;-69
2024/04/02 10:37:45;;;;;;;3.87;1.90;;;;;;;;;;775422;178;813931;-68
2024/04/02 10:40:11;;;;;;;4.50;1.97;;;;;;;;;;781771;178;884009;-68
2024/04/02 10:42:37;;;;;;;2.87;1.73;;;;;;;;;;778275;179;923207;-68
2024/04/02 10:45:04;;;;;;;3.70;1.97;;;;;;;;;;777664;178;817315;-67
2024/04/02 10:47:29;;;;;;;3.80;1.90;;;;;;;;;;772660;179;909432;-68
2024/04/02 10:49:55;;;;;;;2.60;1.23;;;;;;;;;;772992;179;808308;-68
2024/04/02 10:52:21;;;;;;;2.92;1.95;;;;;;;;;;772993;179;944436;-70
2024/04/02 10:54:47;;;;;;;3.80;1.60;;;;;;;;;;781724;177;764589;-68
2024/04/02 10:57:13;;;;;;;3.83;1.80;;;;;;;;;;776287;179;807212;-68
2024/04/02 10:59:39;;;;;;;3.93;1.63;;;;;;;;;;776418;179;769169;-67
2024/04/02 11:02:09;;;;;;;5.80;2.17;;;;;;;;;;773359;177;847505;-69
2024/04/02 11:04:32;;;;;;;3.20;1.57;;;;;;;;;;781725;179;641120;-69
2024/04/02 11:06:58;;;;;;;4.70;1.50;;;;;;;;;;776527;177;915324;-66
2024/04/02 11:09:24;;;;;;;4.72;1.50;;;;;;;;;;771846;178;909776;-67
2024/04/02 11:11:52;;;;;;;2.40;1.27;;;;;;;;;;776816;179;903275;-67
2024/04/02 11:14:16;;;;;;;3.90;1.17;;;;;;;;;;777300;177;818280;-66
2024/04/02 11:16:43;;;;;;;2.67;1.40;;;;;;;;;;767313;179;915540;-66
2024/04/02 11:19:07;;;;;;;2.50;1.20;;;;;;;;;;779120;177;950877;-67
2024/04/02 11:21:33;;;;;;;3.03;1.33;;;;;;;;;;775441;179;805551;-67
2024/04/02 11:26:43;;;;;;;2.30;1.20;;;;;;;;;;768812;179;890575;-66
2024/04/02 11:29:09;;;;;;;2.73;1.10;;;;;;;;;;771661;177;921337;-66
2024/04/02 11:31:35;;;;;;;3.80;1.07;;;;;;;;;;773382;180;847622;-66
2024/04/02 11:34:02;;;;;;;7.10;1.43;;;;;;;;;;775691;179;756562;-67
2024/04/02 11:36:27;;;;;;;2.73;1.23;;;;;;;;;;775365;178;918355;-66
2024/04/02 11:38:53;;;;;;;2.43;1.17;;;;;;;;;;780832;176;817333;-68
2024/04/02 11:41:19;;;;;;;2.87;1.83;;;;;;;;;;772169;177;858975;-65
2024/04/02 11:43:44;;;;;;;2.45;1.10;;;;;;;;;;774657;177;900277;-66
2024/04/02 11:46:10;;;;;;;2.93;1.40;;;;;;;;;;781301;179;849691;-66
2024/04/02 11:48:36;;;;;;;2.10;1.00;;;;;;;;;;781608;179;645229;-67
2024/04/02 11:51:03;;;;;;;3.40;1.10;;;;;;;;;;774388;178;907970;-66
2024/04/02 11:53:28;;;;;;;3.70;1.10;;;;;;;;;;781347;177;731724;-66
2024/04/02 11:55:54;;;;;;;3.07;1.10;;;;;;;;;;772636;177;813123;-67
2024/04/02 12:00:51;;;;;;;3.47;1.17;;;;;;;;;;772008;179;917271;-66
2024/04/02 12:10:16;;;;;;;5.30;1.20;;;;;;;;;;780091;170;904867;-67
2024/04/02 12:12:42;;;;;;;2.63;1.07;;;;;;;;;;766371;178;783343;-67
2024/04/02 12:15:08;;;;;;;3.17;1.10;;;;;;;;;;774745;177;1070162;-67
2024/04/02 12:17:33;;;;;;;2.53;1.23;;;;;;;;;;772672;177;951011;-67
2024/04/02 12:19:59;;;;;;;3.80;1.48;;;;;;;;;;772677;178;812809;-67
2024/04/02 12:22:26;;;;;;;2.87;1.40;;;;;;;;;;780146;179;680066;-66
2024/04/02 12:24:51;;;;;;;4.10;1.23;;;;;;;;;;777714;179;713984;-67
2024/04/02 12:27:17;;;;;;;3.97;1.37;;;;;;;;;;768676;177;918742;-67
2024/04/02 12:29:44;;;;;;;3.45;1.27;;;;;;;;;;773561;177;908523;-69
2024/04/02 12:32:11;;;;;;;2.83;1.00;;;;;;;;;;777239;177;798879;-69
2024/04/02 12:34:36;;;;;;;2.60;1.00;;;;;;;;;;770624;177;815395;-68
2024/04/02 12:37:02;;;;;;;4.43;0.90;;;;;;;;;;771796;177;919122;-69
2024/04/02 12:39:28;;;;;;;2.30;0.90;;;;;;;;;;779259;179;797826;-68
2024/04/02 12:41:54;;;;;;;3.37;1.53;;;;;;;;;;775304;177;824035;-67
2024/04/02 12:44:20;;;;;;;3.47;1.30;;;;;;;;;;771734;179;919377;-69
2024/04/02 12:46:45;;;;;;;3.53;1.20;;;;;;;;;;778112;177;865482;-69
2024/04/02 12:49:11;;;;;;;8.67;1.33;;;;;;;;;;771162;179;898842;-69
2024/04/02 12:51:37;;;;;;;2.20;1.00;;;;;;;;;;778101;177;676823;-68
2024/04/02 12:54:03;;;;;;;2.77;1.20;;;;;;;;;;775650;180;915806;-69
2024/04/02 12:56:29;;;;;;;6.97;1.83;;;;;;;;;;769094;177;918266;-69
2024/04/02 12:58:55;;;;;;;3.00;1.27;;;;;;;;;;768499;177;918106;-68
2024/04/02 13:01:20;;;;;;;3.70;1.23;;;;;;;;;;773778;177;874080;-68
2024/04/02 13:03:46;;;;;;;5.77;1.20;;;;;;;;;;771374;177;962448;-68
2024/04/02 13:06:12;;;;;;;2.50;0.90;;;;;;;;;;773396;177;784207;-68
2024/04/02 13:08:44;;;;;;;2.30;1.10;;;;;;;;;;770146;177;887047;-67
2024/04/02 13:11:05;;;;;;;2.50;0.90;;;;;;;;;;767571;178;1006024;-69
2024/04/02 13:13:30;;;;;;;4.87;1.03;;;;;;;;;;770313;178;919360;-69
2024/04/02 13:15:56;;;;;;;2.20;0.93;;;;;;;;;;774469;177;821642;-69
2024/04/02 13:18:22;;;;;;;3.60;1.10;;;;;;;;;;778553;179;914293;-69
2024/04/02 13:20:52;;;;;;;2.67;0.70;;;;;;;;;;774777;176;816145;-69
2024/04/02 13:23:14;;;;;;;3.60;0.90;;;;;;;;;;775950;177;813797;-69
2024/04/02 13:25:41;;;;;;;3.90;1.30;;;;;;;;;;778829;177;810079;-69
2024/04/02 13:28:06;;;;;;;2.40;1.17;;;;;;;;;;771120;177;882207;-69
2024/04/02 13:30:32;;;;;;;2.40;0.97;;;;;;;;;;774989;179;863386;-69
2024/04/02 13:33:01;;;;;;;3.17;1.47;;;;;;;;;;777309;177;810995;-68
2024/04/02 13:35:23;;;;;;;3.17;1.10;;;;;;;;;;773663;177;909565;-70
2024/04/02 13:37:49;;;;;;;3.00;1.00;;;;;;;;;;772981;177;820653;-68
2024/04/02 13:40:15;;;;;;;2.20;1.10;;;;;;;;;;773918;179;882208;-70
2024/04/02 13:42:41;;;;;;;2.73;0.90;;;;;;;;;;773741;180;845036;-67
2024/04/02 13:45:10;;;;;;;4.27;1.20;;;;;;;;;;771377;177;846872;-69
2024/04/02 13:47:33;;;;;;;2.80;1.00;;;;;;;;;;774533;177;660620;-68
2024/04/02 13:49:59;;;;;;;6.33;1.00;;;;;;;;;;778005;178;804440;-68
2024/04/02 13:52:24;;;;;;;2.83;0.80;;;;;;;;;;773726;179;920996;-68
2024/04/02 13:54:50;;;;;;;2.30;1.00;;;;;;;;;;773631;177;915768;-69
2024/04/02 13:57:16;;;;;;;2.40;1.00;;;;;;;;;;775228;178;720068;-68
2024/04/02 13:59:43;;;;;;;2.03;0.90;;;;;;;;;;775855;180;801584;-68
2024/04/02 14:02:08;;;;;;;2.20;0.83;;;;;;;;;;776792;177;635705;-69
2024/04/02 14:04:41;;;;;;;4.07;1.23;;;;;;;;;;777213;177;804035;-69
2024/04/02 14:07:00;;;;;;;2.35;1.00;;;;;;;;;;773010;179;805834;-68
2024/04/02 14:09:27;;;;;;;2.78;1.20;;;;;;;;;;770716;178;921675;-68
2024/04/02 14:11:52;;;;;;;3.80;1.50;;;;;;;;;;773062;181;916763;-68
2024/04/02 14:14:18;;;;;;;2.47;1.00;;;;;;;;;;773113;177;804814;-68
2024/04/02 14:16:44;;;;;;;2.30;0.90;;;;;;;;;;774113;177;764391;-68
2024/04/02 14:19:09;;;;;;;2.40;0.80;;;;;;;;;;771866;178;918084;-69
2024/04/02 14:21:35;;;;;;;2.45;1.00;;;;;;;;;;769788;177;904625;-68
2024/04/02 14:24:03;;;;;;;3.20;1.00;;;;;;;;;;766387;177;916294;-68
2024/04/02 14:26:27;;;;;;;2.20;0.90;;;;;;;;;;770506;180;932448;-69
2024/04/02 14:28:53;;;;;;;2.10;0.80;;;;;;;;;;776150;177;920776;-69
2024/04/02 14:31:20;;;;;;;2.73;1.00;;;;;;;;;;773514;177;816413;-69
2024/04/02 14:33:45;;;;;;;3.60;1.10;;;;;;;;;;771824;176;918940;-69